Flight Track Log - Related Links

Times and Time Zones

All times are in EDT time to prevent confusion due to time zone crossing. See the EJA929 flight status page for this flight to view local times or setup timezone preferences in your user account.

Time Position Orientation Groundspeed Altitude Reporting Facility
EDT Latitude Longitude Course Direction KTS MPH feet Rate Location/Type
Thu 12:42:17 PM 44.8617 -93.1511 107° East 195 224 3,700  Level Minneapolis Center
Thu 12:43:19 PM 44.8431 -93.0667 107° East 224 258 6,900 1,597 Climbing Minneapolis Center
Thu 12:44:21 PM 44.8519 -92.9797 82° East 240 276 7,000 48 Climbing Minneapolis Center
Thu 12:45:24 PM 44.9069 -92.9553 17° North 225 259 7,000 1,056 Level Minneapolis Center
Thu 12:46:26 PM 44.9775 -92.9528 North 254 292 9,200 2,710 Climbing Minneapolis Center
Thu 12:47:28 PM 45.0467 -92.9572 357° North 252 290 12,600 2,661 Climbing Minneapolis Center
Thu 12:48:30 PM 45.0594 -93.0806 278° West 294 338 14,700 1,790 Climbing Minneapolis Center
Thu 12:49:32 PM 45.0539 -93.2047 266° West 320 368 16,300 1,548 Climbing Minneapolis Center
Thu 12:50:34 PM 45.0483 -93.3406 267° West 350 403 17,900 1,694 Climbing Minneapolis Center
Thu 12:51:36 PM 45.0408 -93.4789 266° West 356 410 19,800 1,887 Climbing Minneapolis Center
Thu 12:52:38 PM 45.0344 -93.6222 266° West 368 423 21,800 2,177 Climbing Minneapolis Center
Thu 12:53:40 PM 45.0261 -93.7972 266° West 373 429 24,300 2,032 Climbing Minneapolis Center
Thu 12:54:42 PM 45.0533 -93.9408 285° West 382 440 26,000 1,694 Climbing Minneapolis Center
Thu 12:55:44 PM 45.0856 -94.0869 287° West 389 448 27,800 1,597 Climbing Minneapolis Center
Thu 12:56:46 PM 45.1183 -94.2381 287° West 399 459 29,300 1,597 Climbing Minneapolis Center
Thu 12:57:48 PM 45.1517 -94.3953 287° West 414 476 31,100 2,371 Climbing Minneapolis Center
Thu 12:58:50 PM 45.1931 -94.5819 288° West 416 479 34,200 2,758 Climbing Minneapolis Center
Thu 12:59:52 PM 45.2239 -94.7250 287° West 405 466 36,800 2,226 Climbing Minneapolis Center
Thu 01:00:54 PM 45.2536 -94.8700 286° West 392 451 38,800 1,440 Climbing Minneapolis Center
Thu 01:01:57 PM 45.2839 -95.0161 286° West 389 448 39,800 1,248 Climbing Minneapolis Center
Thu 01:02:59 PM 45.3208 -95.1992 286° West 401 461 41,400 1,258 Climbing Minneapolis Center
Thu 01:04:01 PM 45.3522 -95.3494 287° West 401 461 42,400 823 Climbing Minneapolis Center
Thu 01:05:03 PM 45.3831 -95.4986 286° West 398 458 43,100 339 Climbing Minneapolis Center
Thu 01:06:05 PM 45.4139 -95.6544 286° West 408 470 43,100  Level Minneapolis Center
Thu 01:07:07 PM 45.4464 -95.8156 286° West 422 486 43,100  Level Minneapolis Center
Thu 01:08:09 PM 45.4864 -96.0142 286° West 432 497 43,100  Level Minneapolis Center
Thu 01:09:11 PM 45.5183 -96.1789 286° West 435 501 43,100  Level Minneapolis Center
Thu 01:10:13 PM 45.5506 -96.3464 285° West 438 504 43,100  Level Minneapolis Center
Thu 01:11:15 PM 45.5828 -96.5122 286° West 437 503 43,100  Level Minneapolis Center
Thu 01:12:17 PM 45.6156 -96.6769 286° West 436 502 43,100  Level Minneapolis Center
Thu 01:13:19 PM 45.6536 -96.8761 285° West 435 501 43,100  Level Minneapolis Center
Thu 01:14:21 PM 45.6850 -97.0414 285° West 435 501 43,100  Level Minneapolis Center
Thu 01:15:23 PM 45.7158 -97.2058 285° West 431 496 43,100  Level Minneapolis Center
Thu 01:16:25 PM 45.7461 -97.3714 285° West 432 497 43,100  Level Minneapolis Center
Thu 01:17:28 PM 45.7769 -97.5383 285° West 435 501 43,100  Level Minneapolis Center
Thu 01:18:30 PM 45.8128 -97.7392 284° West 436 502 43,100  Level Minneapolis Center
Thu 01:19:32 PM 45.8422 -97.9061 284° West 434 499 43,100 -48 Level Minneapolis Center
Thu 01:20:34 PM 45.8706 -98.0578 285° West 437 503 43,000  Descending Minneapolis Center
Thu 01:21:37 PM 45.9044 -98.2428 285° West 442 509 43,100 48 Climbing Minneapolis Center
Thu 01:22:39 PM 45.9331 -98.4111 284° West 438 504 43,100  Level Minneapolis Center
Thu 01:23:41 PM 45.9622 -98.5775 284° West 435 501 43,100  Level Minneapolis Center
Thu 01:24:43 PM 45.9964 -98.7761 284° West 430 495 43,100  Level Minneapolis Center
Thu 01:25:45 PM 46.0244 -98.9442 284° West 432 497 43,100  Level Minneapolis Center
Thu 01:26:47 PM 46.0519 -99.1097 284° West 430 495 43,100  Level Minneapolis Center
Thu 01:27:49 PM 46.0803 -99.2767 284° West 431 496 43,100  Level Minneapolis Center
Thu 01:28:51 PM 46.1069 -99.4439 283° West 430 495 43,100  Level Minneapolis Center
Thu 01:29:53 PM 46.1392 -99.6450 283° West 431 496 43,100  Level Minneapolis Center
Thu 01:30:55 PM 46.1667 -99.8122 283° West 431 496 43,100  Level Minneapolis Center
Thu 01:31:57 PM 46.1936 -99.9819 283° West 434 499 43,100  Level Minneapolis Center
Thu 01:32:59 PM 46.2200 -100.1528 283° West 437 503 43,100  Level Minneapolis Center
Thu 01:34:01 PM 46.2469 -100.3225 283° West 436 502 43,100  Level Minneapolis Center
Thu 01:35:03 PM 46.2731 -100.4928 283° West 435 501 43,100  Level Minneapolis Center
Thu 01:36:05 PM 46.3044 -100.6964 283° West 434 499 43,100  Level Minneapolis Center
Thu 01:37:07 PM 46.3303 -100.8694 282° West 438 504 43,100  Level Minneapolis Center
Thu 01:38:10 PM 46.3556 -101.0419 282° West 440 506 43,100 -48 Level Minneapolis Center
Thu 01:39:12 PM 46.3817 -101.2142 282° West 439 505 43,000 -48 Descending Minneapolis Center
Thu 01:40:14 PM 46.4056 -101.3928 281° West 448 516 43,000 48 Level Minneapolis Center
Thu 01:41:16 PM 46.4303 -101.5686 282° West 448 516 43,100  Climbing Minneapolis Center
Thu 01:42:18 PM 46.4597 -101.7522 283° West 443 510 43,000 -48 Descending Minneapolis Center
Thu 01:43:20 PM 46.4864 -101.9267 283° West 443 510 43,000  Level Minneapolis Center
Thu 01:44:22 PM 46.5108 -102.1042 281° West 447 514 43,000  Level Minneapolis Center
Thu 01:45:24 PM 46.5394 -102.3178 281° West 450 518 43,000  Level Minneapolis Center
Thu 01:46:26 PM 46.5650 -102.4933 282° West 447 514 43,000  Level Minneapolis Center
Thu 01:47:28 PM 46.5886 -102.6714 281° West 448 516 43,000  Level Minneapolis Center
Thu 01:48:30 PM 46.6117 -102.8497 281° West 448 516 43,000  Level Minneapolis Center
Thu 01:49:32 PM 46.6344 -103.0303 280° West 452 520 43,000  Level Minneapolis Center
Thu 01:50:01 PM 46.6464 -103.1381 279° West 450 518 43,000  Level Salt Lake Center
Thu 01:51:03 PM 46.6689 -103.3169 280° West 450 518 43,000  Level Salt Lake Center
Thu 01:52:05 PM 46.6917 -103.4942 281° West 448 516 43,000  Level Salt Lake Center
Thu 01:53:07 PM 46.7136 -103.6733 280° West 448 516 43,000  Level Salt Lake Center
Thu 01:54:09 PM 46.7356 -103.8533 280° West 448 516 43,000  Level Salt Lake Center
Thu 01:55:11 PM 46.7572 -104.0339 280° West 451 519 43,000  Level Salt Lake Center
Thu 01:56:13 PM 46.7819 -104.2494 280° West 450 518 43,000  Level Salt Lake Center
Thu 01:57:15 PM 46.8036 -104.4303 280° West 452 520 43,000  Level Salt Lake Center
Thu 01:58:17 PM 46.8228 -104.6083 279° West 448 516 43,000  Level Salt Lake Center
Thu 01:59:19 PM 46.8450 -104.7889 280° West 449 517 43,000  Level Salt Lake Center
Thu 02:00:21 PM 46.8636 -104.9686 279° West 448 516 43,000  Level Salt Lake Center
Thu 02:01:23 PM 46.8839 -105.1489 279° West 449 517 43,000  Level Salt Lake Center
Thu 02:02:25 PM 46.9050 -105.3317 280° West 453 521 43,000  Level Salt Lake Center
Thu 02:03:27 PM 46.9294 -105.5506 279° West 454 522 43,000  Level Salt Lake Center
Thu 02:04:29 PM 46.9494 -105.7342 279° West 456 525 43,000  Level Salt Lake Center
Thu 02:05:31 PM 46.9683 -105.9161 279° West 455 524 43,000  Level Salt Lake Center
Thu 02:06:33 PM 46.9867 -106.0981 278° West 453 521 43,000  Level Salt Lake Center
Thu 02:07:34 PM 47.0056 -106.2828 279° West 457 526 43,000 32 Level Salt Lake Center
Thu 02:09:00 PM 47.0291 -106.5211 278° West  Level FlightAware Approximate
Thu 02:09:38 PM 47.0431 -106.6617 278° West 451 519 43,100  Level Salt Lake Center
Thu 02:10:40 PM 47.0625 -106.8642 278° West 450 518 43,000 -48 Descending Salt Lake Center
Thu 02:11:42 PM 47.0781 -107.0381 278° West 451 519 43,000 48 Level Salt Lake Center
Thu 02:12:44 PM 47.0969 -107.2403 278° West 449 517 43,100 48 Climbing Salt Lake Center
Thu 02:13:46 PM 47.1131 -107.4147 278° West 451 519 43,100  Level Salt Lake Center
Thu 02:14:48 PM 47.1303 -107.6144 277° West 445 512 43,100  Level Salt Lake Center
Thu 02:15:49 PM 47.1453 -107.7906 277° West 450 518 43,100  Level Salt Lake Center
Thu 02:16:51 PM 47.1628 -107.9928 277° West 448 516 43,100  Level Salt Lake Center
Thu 02:17:53 PM 47.1769 -108.1669 277° West 449 517 43,100  Level Salt Lake Center
Thu 02:18:55 PM 47.1936 -108.3717 277° West 451 519 43,100  Level Salt Lake Center
Thu 02:19:57 PM 47.2075 -108.5444 277° West 448 516 43,100 -48 Level Salt Lake Center
Thu 02:20:59 PM 47.2208 -108.7203 276° West 450 518 43,000 -49 Descending Salt Lake Center
Thu 02:22:00 PM 47.2342 -108.8931 277° West 450 518 43,000  Level Salt Lake Center
Thu 02:23:02 PM 47.2506 -109.1106 276° West 448 516 43,000  Level Salt Lake Center
Thu 02:24:04 PM 47.2642 -109.2925 276° West 447 514 43,000  Level Salt Lake Center
Thu 02:25:06 PM 47.2767 -109.4747 276° West 448 516 43,000  Level Salt Lake Center
Thu 02:26:08 PM 47.2894 -109.6553 276° West 446 513 43,000  Level Salt Lake Center
Thu 02:27:09 PM 47.3022 -109.8361 276° West 445 512 43,000  Level Salt Lake Center
Thu 02:28:11 PM 47.3136 -110.0172 275° West 446 513 43,000  Level Salt Lake Center
Thu 02:29:13 PM 47.3258 -110.1972 276° West 443 510 43,000  Level Salt Lake Center
Thu 02:30:15 PM 47.3400 -110.4128 276° West 442 509 43,000  Level Salt Lake Center
Thu 02:31:16 PM 47.3508 -110.5931 275° West 440 506 43,000  Level Salt Lake Center
Thu 02:32:18 PM 47.3619 -110.7731 275° West 441 507 43,000  Level Salt Lake Center
Thu 02:33:20 PM 47.3722 -110.9533 275° West 441 507 43,000  Level Salt Lake Center
Thu 02:34:22 PM 47.3825 -111.1336 275° West 439 505 43,000  Level Salt Lake Center
Thu 02:35:24 PM 47.3925 -111.3153 275° West 439 505 43,000  Level Salt Lake Center
Thu 02:36:25 PM 47.4025 -111.4989 275° West 443 510 43,000  Level Salt Lake Center
Thu 02:37:27 PM 47.4111 -111.6806 274° West 441 507 43,000  Level Salt Lake Center
Thu 02:38:29 PM 47.4214 -111.8617 275° West 442 509 43,000  Level Salt Lake Center
Thu 02:39:31 PM 47.4317 -112.0789 274° West 441 507 43,000  Level Salt Lake Center
Thu 02:40:33 PM 47.4406 -112.2614 274° West 444 511 43,000  Level Salt Lake Center
Thu 02:41:35 PM 47.4483 -112.4419 274° West 441 507 43,000  Level Salt Lake Center
Thu 02:42:36 PM 47.4558 -112.6244 274° West 445 512 43,000  Level Salt Lake Center
Thu 02:43:38 PM 47.4639 -112.8056 274° West 445 512 43,000  Level Salt Lake Center
Thu 02:44:40 PM 47.4706 -112.9897 273° West 442 509 43,000  Level Salt Lake Center
Thu 02:45:42 PM 47.4792 -113.1725 274° West 446 513 43,000  Level Salt Lake Center
Thu 02:46:44 PM 47.4872 -113.3922 273° West 446 513 43,000  Level Salt Lake Center
Thu 02:47:46 PM 47.4944 -113.5744 273° West 444 511 43,000  Level Salt Lake Center
Thu 02:48:47 PM 47.5000 -113.7575 273° West 445 512 43,000  Level Salt Lake Center
Thu 02:49:49 PM 47.5069 -113.9408 273° West 446 513 43,000  Level Salt Lake Center
Thu 02:50:51 PM 47.5119 -114.1242 272° West 444 511 43,000  Level Salt Lake Center
Thu 02:51:53 PM 47.5178 -114.3075 273° West 444 511 43,000  Level Salt Lake Center
Thu 02:52:54 PM 47.5225 -114.4911 272° West 445 512 43,000  Level Salt Lake Center
Thu 02:53:56 PM 47.5283 -114.6786 273° West 452 520 43,000  Level Salt Lake Center
Thu 02:54:58 PM 47.5328 -114.8683 272° West 459 528 43,000  Level Salt Lake Center
Thu 02:55:57 PM 47.5378 -115.0611 272° West 463 533 43,000  Level Seattle Center
Thu 02:56:58 PM 47.5411 -115.2533 272° West 466 536 43,000  Level Seattle Center
Thu 02:57:59 PM 47.5464 -115.4847 272° West 468 539 43,000  Level Seattle Center
Thu 02:59:00 PM 47.5500 -115.6764 272° West 468 539 43,000  Level Seattle Center
Thu 03:00:01 PM 47.5517 -115.8725 271° West 468 539 43,000  Level Seattle Center
Thu 03:01:02 PM 47.5542 -116.0642 271° West 468 539 43,000  Level Seattle Center
Thu 03:02:03 PM 47.5569 -116.2569 271° West 469 540 43,000  Level Seattle Center
Thu 03:03:04 PM 47.5589 -116.4489 271° West 468 539 43,000  Level Seattle Center
Thu 03:04:05 PM 47.5608 -116.6417 271° West 470 541 43,000  Level Seattle Center
Thu 03:05:06 PM 47.5622 -116.8342 271° West 469 540 43,000  Level Seattle Center
Thu 03:06:08 PM 47.5647 -117.0231 271° West 470 541 43,000 49 Level Seattle Center
Thu 03:07:09 PM 47.5644 -117.2278 270° West 469 540 43,100  Climbing Seattle Center
Thu 03:08:10 PM 47.5650 -117.4297 270° West 468 539 43,000 -49 Descending Seattle Center
Thu 03:09:11 PM 47.5656 -117.6225 270° West 469 540 43,000  Level Seattle Center
Thu 03:10:12 PM 47.5819 -117.8122 277° West 466 536 43,000  Level Seattle Center
Thu 03:11:13 PM 47.5997 -118.0033 278° West 469 540 43,000  Level Seattle Center
Thu 03:12:14 PM 47.6175 -118.1942 278° West 468 539 43,000  Level Seattle Center
Thu 03:13:15 PM 47.6364 -118.3853 278° West 469 540 43,000  Level Seattle Center
Thu 03:14:16 PM 47.6531 -118.5767 277° West 471 542 43,000  Level Seattle Center
Thu 03:15:17 PM 47.6692 -118.7692 277° West 471 542 43,000  Level Seattle Center
Thu 03:16:18 PM 47.6853 -118.9633 277° West 476 548 43,000  Level Seattle Center
Thu 03:17:19 PM 47.7061 -119.1944 278° West 474 545 43,000  Level Seattle Center
Thu 03:18:20 PM 47.7206 -119.3889 276° West 474 545 43,000  Level Seattle Center
Thu 03:19:22 PM 47.7367 -119.5825 277° West 474 545 43,000 -976 Level Seattle Center
Thu 03:20:23 PM 47.7522 -119.7792 277° West 478 550 41,000 -2,459 Descending Seattle Center
Thu 03:21:24 PM 47.7669 -119.9808 276° West 489 563 38,000 -2,902 Descending Seattle Center
Thu 03:22:25 PM 47.7819 -120.1728 277° West 474 545 35,100 -2,902 Descending Seattle Center
Thu 03:23:26 PM 47.7953 -120.3661 276° West 471 542 32,100 -2,902 Descending Seattle Center
Thu 03:24:27 PM 47.8097 -120.5556 277° West 464 534 29,200 -2,902 Descending Seattle Center
Thu 03:25:28 PM 47.8231 -120.7547 276° West 481 554 26,200 -2,951 Descending Seattle Center
Thu 03:26:29 PM 47.8372 -120.9497 276° West 449 517 23,200 -3,027 Descending Seattle Center
Thu 03:27:21 PM 47.8517 -121.1278 277° West 439 505 20,500 -3,000 Descending Seattle Center
Thu 03:27:57 PM 47.8581 -121.2369 275° West 438 504 18,800 -2,400 Descending Seattle Center
Thu 03:28:31 PM 47.8606 -121.3044 273° West 435 501 17,700 -2,656 Descending Seattle Center
Thu 03:28:58 PM 47.8678 -121.4106 276° West 422 486 16,100 -2,361 Descending Seattle Center
Thu 03:29:32 PM 47.8722 -121.4644 277° West 387 445 15,300 -1,967 Descending Seattle Center
Thu 03:29:59 PM 47.8767 -121.5481 275° West 305 351 14,100 -2,106 Descending Seattle Center
Thu 03:31:06 PM 47.8797 -121.6889 272° West 285 328 12,000 -1,326 Descending Seattle Center
Thu 03:31:34 PM 47.8642 -121.7314 241° Southwest 296 341 12,000 -689 Level Seattle Center
Thu 03:32:07 PM 47.8294 -121.7803 223° Southwest 291 335 11,300 -1,574 Descending Seattle Center
Thu 03:32:35 PM 47.8061 -121.8214 230° Southwest 284 327 10,400 -1,869 Descending Seattle Center
Thu 03:33:08 PM 47.7883 -121.8797 246° West 278 320 9,400 -1,770 Descending Seattle Center
Thu 03:33:36 PM 47.7728 -121.9267 244° Southwest 280 322 8,600 -1,869 Descending Seattle Center
Thu 03:34:09 PM 47.7561 -121.9806 245° Southwest 277 319 7,500 -1,869 Descending Seattle Center
Thu 03:34:37 PM 47.7406 -122.0286 244° Southwest 274 315 6,700 -1,869 Descending Seattle Center
Thu 03:35:10 PM 47.7228 -122.0850 245° Southwest 273 314 5,600 -1,672 Descending Seattle Center
Thu 03:35:38 PM 47.7050 -122.1378 243° Southwest 274 315 5,000 -1,068 Descending Seattle Center
Thu 03:36:23 PM 47.6903 -122.2119 254° West 273 314 4,300 -984 Descending Seattle Center
Thu 03:36:39 PM 47.6836 -122.2425 252° West 269 310 4,000 -367 Descending Seattle Center
Thu 03:37:12 PM 47.6758 -122.2858 255° West 205 236 4,000  Level Seattle Center
Thu 03:37:40 PM 47.6642 -122.3183 242° Southwest 205 236 4,000 -228 Level Seattle Center
Thu 03:38:31 PM 47.6192 -122.3172 179° South 189 217 3,700 -645 Descending Seattle Center
Thu 03:39:13 PM 47.5836 -122.3169 180° South 178 205 3,000 -1,083 Descending Seattle Center
Thu 03:39:43 PM 47.5575 -122.3178 181° South 177 204 2,400 -1,161 Descending Seattle Center
Thu 03:40:15 PM 47.5350 -122.3178 180° South 172 198 1,800 -984 Descending Seattle Center
Thu 03:40:44 PM 47.5108 -122.3175 180° South 168 193 1,400 -800 Descending Seattle Center
Thu 03:41:15 PM 47.4908 -122.3192 183° South 146 168 1,000 -689 Descending Seattle Center
Thu 03:41:45 PM 47.4728 -122.3183 178° South 141 162 700 -396 Descending Seattle Center
Thu 03:42:46 PM 47.4383 -122.3186 180° South 140 161 400 -295 Descending Seattle Center
Thu 03:44:00 PM 47.4333 -122.3000 90° East  Level FlightAware Approximate

Login

Don't have an account? Register now (free) for customized features, flight alerts, and more!